sensor_id;sensor_type;location;lat;lon;timestamp;pressure;altitude;pressure_sealevel;temperature;humidity
6599;BME280;3335;43.198;27.918;2022-08-01T00:02:13;152725.84;;;21.96;100.00
6599;BME280;3335;43.198;27.918;2022-08-01T00:04:40;152725.84;;;21.96;100.00
6599;BME280;3335;43.198;27.918;2022-08-01T00:07:07;152708.19;;;21.89;100.00
6599;BME280;3335;43.198;27.918;2022-08-01T00:09:35;152698.13;;;21.85;100.00
6599;BME280;3335;43.198;27.918;2022-08-01T00:12:02;152703.13;;;21.87;100.00
6599;BME280;3335;43.198;27.918;2022-08-01T00:14:30;152690.53;;;21.81;100.00
6599;BME280;3335;43.198;27.918;2022-08-01T00:16:57;152699.38;;;21.85;100.00
6599;BME280;3335;43.198;27.918;2022-08-01T00:19:24;152680.47;;;21.77;100.00
6599;BME280;3335;43.198;27.918;2022-08-01T00:21:50;152665.41;;;21.71;100.00
6599;BME280;3335;43.198;27.918;2022-08-01T00:24:17;152647.75;;;21.64;100.00
6599;BME280;3335;43.198;27.918;2022-08-01T00:26:46;152660.34;;;21.69;100.00
6599;BME280;3335;43.198;27.918;2022-08-01T00:29:12;152641.47;;;21.62;100.00
6599;BME280;3335;43.198;27.918;2022-08-01T00:31:39;152630.16;;;21.57;100.00
6599;BME280;3335;43.198;27.918;2022-08-01T00:34:06;152625.09;;;21.55;100.00
6599;BME280;3335;43.198;27.918;2022-08-01T00:36:33;152650.28;;;21.65;100.00
6599;BME280;3335;43.198;27.918;2022-08-01T00:39:00;152652.81;;;21.66;100.00
6599;BME280;3335;43.198;27.918;2022-08-01T00:41:27;152650.28;;;21.65;100.00
6599;BME280;3335;43.198;27.918;2022-08-01T00:43:55;152635.16;;;21.59;100.00
6599;BME280;3335;43.198;27.918;2022-08-01T00:46:22;152627.63;;;21.56;100.00
6599;BME280;3335;43.198;27.918;2022-08-01T00:48:49;152625.09;;;21.55;100.00
6599;BME280;3335;43.198;27.918;2022-08-01T00:51:16;152609.97;;;21.49;100.00
6599;BME280;3335;43.198;27.918;2022-08-01T00:53:43;152562.16;;;21.30;100.00
6599;BME280;3335;43.198;27.918;2022-08-01T00:56:10;152594.84;;;21.43;100.00
6599;BME280;3335;43.198;27.918;2022-08-01T00:58:37;152589.84;;;21.41;100.00
6599;BME280;3335;43.198;27.918;2022-08-01T01:01:06;152577.28;;;21.36;100.00
6599;BME280;3335;43.198;27.918;2022-08-01T01:03:32;152582.31;;;21.38;100.00
6599;BME280;3335;43.198;27.918;2022-08-01T01:06:07;152592.38;;;21.42;100.00
6599;BME280;3335;43.198;27.918;2022-08-01T01:08:43;152597.38;;;21.44;100.00
6599;BME280;3335;43.198;27.918;2022-08-01T01:11:17;152592.38;;;21.42;100.00
6599;BME280;3335;43.198;27.918;2022-08-01T01:13:52;152572.22;;;21.34;100.00
6599;BME280;3335;43.198;27.918;2022-08-01T01:16:22;152593.66;;;21.43;100.00
6599;BME280;3335;43.198;27.918;2022-08-01T01:18:52;152574.75;;;21.35;100.00
6599;BME280;3335;43.198;27.918;2022-08-01T01:21:46;152594.84;;;21.43;100.00
6599;BME280;3335;43.198;27.918;2022-08-01T01:24:28;152577.28;;;21.36;100.00
6599;BME280;3335;43.198;27.918;2022-08-01T01:29:48;152526.91;;;21.16;100.00
6599;BME280;3335;43.198;27.918;2022-08-01T01:32:19;152564.69;;;21.31;100.00
6599;BME280;3335;43.198;27.918;2022-08-01T01:34:50;152539.50;;;21.21;100.00
6599;BME280;3335;43.198;27.918;2022-08-01T01:37:23;152539.50;;;21.21;100.00
6599;BME280;3335;43.198;27.918;2022-08-01T01:39:52;152547.09;;;21.24;100.00
6599;BME280;3335;43.198;27.918;2022-08-01T01:42:20;152547.09;;;21.24;100.00
6599;BME280;3335;43.198;27.918;2022-08-01T01:44:52;152548.31;;;21.24;100.00
6599;BME280;3335;43.198;27.918;2022-08-01T01:47:22;152548.31;;;21.24;100.00
6599;BME280;3335;43.198;27.918;2022-08-01T01:49:50;152536.97;;;21.20;100.00
6599;BME280;3335;43.198;27.918;2022-08-01T01:52:20;152536.97;;;21.20;100.00
6599;BME280;3335;43.198;27.918;2022-08-01T01:54:51;152536.97;;;21.20;100.00
6599;BME280;3335;43.198;27.918;2022-08-01T01:57:19;152536.97;;;21.20;100.00
6599;BME280;3335;43.198;27.918;2022-08-01T01:59:49;152526.91;;;21.16;100.00
6599;BME280;3335;43.198;27.918;2022-08-01T02:02:19;152519.34;;;21.13;100.00
6599;BME280;3335;43.198;27.918;2022-08-01T02:04:47;152520.66;;;21.13;100.00
6599;BME280;3335;43.198;27.918;2022-08-01T02:07:24;152525.66;;;21.15;100.00
6599;BME280;3335;43.198;27.918;2022-08-01T02:09:54;152380.94;;;20.57;100.00
6599;BME280;3335;43.198;27.918;2022-08-01T02:12:21;152513.00;;;21.10;100.00
6599;BME280;3335;43.198;27.918;2022-08-01T02:14:50;152502.97;;;21.06;100.00
6599;BME280;3335;43.198;27.918;2022-08-01T02:17:21;152499.22;;;21.05;100.00
6599;BME280;3335;43.198;27.918;2022-08-01T02:19:50;152481.56;;;20.98;100.00
6599;BME280;3335;43.198;27.918;2022-08-01T02:22:20;152491.63;;;21.02;100.00
6599;BME280;3335;43.198;27.918;2022-08-01T02:24:55;152492.91;;;21.02;100.00
6599;BME280;3335;43.198;27.918;2022-08-01T02:27:30;152471.50;;;20.93;100.00
6599;BME280;3335;43.198;27.918;2022-08-01T02:30:03;152480.31;;;20.97;100.00
6599;BME280;3335;43.198;27.918;2022-08-01T02:32:36;152479.03;;;20.96;100.00
6599;BME280;3335;43.198;27.918;2022-08-01T02:35:05;152466.47;;;20.91;100.00
6599;BME280;3335;43.198;27.918;2022-08-01T02:37:36;152413.63;;;20.70;100.00
6599;BME280;3335;43.198;27.918;2022-08-01T02:40:06;152481.56;;;20.98;100.00
6599;BME280;3335;43.198;27.918;2022-08-01T02:42:34;152468.97;;;20.92;100.00
6599;BME280;3335;43.198;27.918;2022-08-01T02:45:05;152453.88;;;20.86;100.00
6599;BME280;3335;43.198;27.918;2022-08-01T02:47:36;152470.25;;;20.93;100.00
6599;BME280;3335;43.198;27.918;2022-08-01T02:50:06;152456.41;;;20.87;100.00
6599;BME280;3335;43.198;27.918;2022-08-01T02:52:34;152453.88;;;20.86;100.00
6599;BME280;3335;43.198;27.918;2022-08-01T02:55:03;152446.34;;;20.83;100.00
6599;BME280;3335;43.198;27.918;2022-08-01T02:57:33;152456.41;;;20.87;100.00
6599;BME280;3335;43.198;27.918;2022-08-01T03:00:01;152452.66;;;20.86;100.00
6599;BME280;3335;43.198;27.918;2022-08-01T03:02:29;152448.88;;;20.84;100.00
6599;BME280;3335;43.198;27.918;2022-08-01T03:04:59;152456.41;;;20.87;100.00
6599;BME280;3335;43.198;27.918;2022-08-01T03:07:28;152457.66;;;20.88;100.00
6599;BME280;3335;43.198;27.918;2022-08-01T03:09:57;152461.44;;;20.89;100.00
6599;BME280;3335;43.198;27.918;2022-08-01T03:12:27;152468.97;;;20.92;100.00
6599;BME280;3335;43.198;27.918;2022-08-01T03:14:57;152456.41;;;20.87;100.00
6599;BME280;3335;43.198;27.918;2022-08-01T03:17:28;152416.16;;;20.71;100.00
6599;BME280;3335;43.198;27.918;2022-08-01T03:19:58;152456.41;;;20.87;100.00
6599;BME280;3335;43.198;27.918;2022-08-01T03:22:28;152465.19;;;20.91;100.00
6599;BME280;3335;43.198;27.918;2022-08-01T03:24:57;152458.94;;;20.88;100.00
6599;BME280;3335;43.198;27.918;2022-08-01T03:27:26;152423.69;;;20.74;100.00
6599;BME280;3335;43.198;27.918;2022-08-01T03:29:55;152446.34;;;20.83;100.00
6599;BME280;3335;43.198;27.918;2022-08-01T03:32:23;152433.75;;;20.78;100.00
6599;BME280;3335;43.198;27.918;2022-08-01T03:34:51;152431.22;;;20.77;100.00
6599;BME280;3335;43.198;27.918;2022-08-01T03:37:23;152431.22;;;20.77;100.00
6599;BME280;3335;43.198;27.918;2022-08-01T03:39:55;152441.28;;;20.81;100.00
6599;BME280;3335;43.198;27.918;2022-08-01T03:42:28;152433.75;;;20.78;100.00
6599;BME280;3335;43.198;27.918;2022-08-01T03:45:00;152423.69;;;20.74;100.00
6599;BME280;3335;43.198;27.918;2022-08-01T03:47:31;152424.97;;;20.75;100.00
6599;BME280;3335;43.198;27.918;2022-08-01T03:49:59;152418.66;;;20.72;100.00
6599;BME280;3335;43.198;27.918;2022-08-01T03:52:29;152431.22;;;20.77;100.00
6599;BME280;3335;43.198;27.918;2022-08-01T03:54:59;152433.75;;;20.78;100.00
6599;BME280;3335;43.198;27.918;2022-08-01T03:57:28;152437.53;;;20.80;100.00
6599;BME280;3335;43.198;27.918;2022-08-01T03:59:56;152417.44;;;20.72;100.00
6599;BME280;3335;43.198;27.918;2022-08-01T04:02:26;152413.63;;;20.70;100.00
6599;BME280;3335;43.198;27.918;2022-08-01T04:04:53;152418.66;;;20.72;100.00
6599;BME280;3335;43.198;27.918;2022-08-01T04:07:22;152421.16;;;20.73;100.00
6599;BME280;3335;43.198;27.918;2022-08-01T04:09:51;152423.69;;;20.74;100.00
6599;BME280;3335;43.198;27.918;2022-08-01T04:12:18;152419.91;;;20.73;100.00
6599;BME280;3335;43.198;27.918;2022-08-01T04:14:45;152428.75;;;20.76;100.00
6599;BME280;3335;43.198;27.918;2022-08-01T04:17:12;152453.88;;;20.86;100.00
6599;BME280;3335;43.198;27.918;2022-08-01T04:19:40;152453.88;;;20.86;100.00
6599;BME280;3335;43.198;27.918;2022-08-01T04:22:08;152451.41;;;20.85;100.00
6599;BME280;3335;43.198;27.918;2022-08-01T04:24:36;152453.88;;;20.86;100.00
6599;BME280;3335;43.198;27.918;2022-08-01T04:27:09;152462.72;;;20.90;100.00
6599;BME280;3335;43.198;27.918;2022-08-01T04:29:39;152458.94;;;20.88;100.00
6599;BME280;3335;43.198;27.918;2022-08-01T04:32:07;152491.63;;;21.02;100.00
6599;BME280;3335;43.198;27.918;2022-08-01T04:34:38;152513.00;;;21.10;100.00
6599;BME280;3335;43.198;27.918;2022-08-01T04:37:07;152516.81;;;21.12;100.00
6599;BME280;3335;43.198;27.918;2022-08-01T04:39:37;152535.72;;;21.19;100.00
6599;BME280;3335;43.198;27.918;2022-08-01T04:42:07;152549.56;;;21.25;100.00
6599;BME280;3335;43.198;27.918;2022-08-01T04:44:34;152553.34;;;21.26;100.00
6599;BME280;3335;43.198;27.918;2022-08-01T04:47:02;152243.78;;;20.02;100.00
6599;BME280;3335;43.198;27.918;2022-08-01T04:49:30;152587.31;;;21.40;100.00
6599;BME280;3335;43.198;27.918;2022-08-01T04:51:57;152594.84;;;21.43;100.00
6599;BME280;3335;43.198;27.918;2022-08-01T04:54:25;152621.31;;;21.54;100.00
6599;BME280;3335;43.198;27.918;2022-08-01T04:56:53;152618.78;;;21.53;100.00
6599;BME280;3335;43.198;27.918;2022-08-01T04:59:22;152667.88;;;21.72;100.00
6599;BME280;3335;43.198;27.918;2022-08-01T05:02:09;152681.75;;;21.78;100.00
6599;BME280;3335;43.198;27.918;2022-08-01T05:04:37;152560.88;;;21.29;100.00
6599;BME280;3335;43.198;27.918;2022-08-01T05:07:06;152720.81;;;21.94;100.00
6599;BME280;3335;43.198;27.918;2022-08-01T05:09:33;152753.56;;;22.07;100.00
6599;BME280;3335;43.198;27.918;2022-08-01T05:12:02;152766.16;;;22.12;100.00
6599;BME280;3335;43.198;27.918;2022-08-01T05:14:31;152788.81;;;22.21;100.00
6599;BME280;3335;43.198;27.918;2022-08-01T05:16:58;152819.06;;;22.33;100.00
6599;BME280;3335;43.198;27.918;2022-08-01T05:19:28;152840.47;;;22.42;100.00
6599;BME280;3335;43.198;27.918;2022-08-01T05:21:55;152859.34;;;22.49;100.00
6599;BME280;3335;43.198;27.918;2022-08-01T05:24:22;152874.47;;;22.55;100.00
6599;BME280;3335;43.198;27.918;2022-08-01T05:26:49;152849.28;;;22.45;100.00
6599;BME280;3335;43.198;27.918;2022-08-01T05:29:16;152899.66;;;22.65;100.00
6599;BME280;3335;43.198;27.918;2022-08-01T05:31:44;152752.28;;;22.06;100.00
6599;BME280;3335;43.198;27.918;2022-08-01T05:34:11;152916.06;;;22.72;100.00
6599;BME280;3335;43.198;27.918;2022-08-01T05:36:38;152929.94;;;22.78;100.00
6599;BME280;3335;43.198;27.918;2022-08-01T13:17:53;155106.72;;;31.49;74.46
6599;BME280;3335;43.198;27.918;2022-08-01T13:20:25;155176.38;;;31.77;71.92
6599;BME280;3335;43.198;27.918;2022-08-01T13:22:52;155090.22;;;31.43;76.04
6599;BME280;3335;43.198;27.918;2022-08-01T13:25:19;155052.25;;;31.27;83.70
6599;BME280;3335;43.198;27.918;2022-08-01T13:27:46;154931.94;;;30.79;91.26
6599;BME280;3335;43.198;27.918;2022-08-01T13:30:14;154948.41;;;30.86;90.70
6599;BME280;3335;43.198;27.918;2022-08-01T13:32:41;154988.97;;;31.02;93.70
6599;BME280;3335;43.198;27.918;2022-08-01T13:35:12;155042.13;;;31.23;95.52
6599;BME280;3335;43.198;27.918;2022-08-01T13:37:40;155087.69;;;31.42;92.80
6599;BME280;3335;43.198;27.918;2022-08-01T13:40:10;155002.91;;;31.08;97.02
6599;BME280;3335;43.198;27.918;2022-08-01T13:42:37;154812.94;;;30.32;100.00
6599;BME280;3335;43.198;27.918;2022-08-01T13:45:06;154762.38;;;30.12;100.00
6599;BME280;3335;43.198;27.918;2022-08-01T13:47:36;154753.47;;;30.08;100.00
6599;BME280;3335;43.198;27.918;2022-08-01T13:50:03;154529.50;;;29.19;95.04
6599;BME280;3335;43.198;27.918;2022-08-01T13:52:32;154771.22;;;30.15;93.79
6599;BME280;3335;43.198;27.918;2022-08-01T13:54:59;154769.94;;;30.15;100.00
6599;BME280;3335;43.198;27.918;2022-08-01T13:57:27;154750.97;;;30.07;100.00
6599;BME280;3335;43.198;27.918;2022-08-01T13:59:55;154669.94;;;29.75;100.00
6599;BME280;3335;43.198;27.918;2022-08-01T14:02:25;154625.69;;;29.57;100.00
6599;BME280;3335;43.198;27.918;2022-08-01T14:04:52;154619.38;;;29.54;100.00
6599;BME280;3335;43.198;27.918;2022-08-01T14:07:19;154633.31;;;29.60;100.00
6599;BME280;3335;43.198;27.918;2022-08-01T14:09:47;154948.41;;;30.86;100.00
6599;BME280;3335;43.198;27.918;2022-08-01T14:12:14;155295.47;;;32.25;100.00
6599;BME280;3335;43.198;27.918;2022-08-01T14:14:41;155351.19;;;32.47;100.00
6599;BME280;3335;43.198;27.918;2022-08-01T14:17:08;155254.88;;;32.08;100.00
6599;BME280;3335;43.198;27.918;2022-08-01T14:19:35;155110.47;;;31.51;100.00
6599;BME280;3335;43.198;27.918;2022-08-01T14:22:02;154924.38;;;30.76;100.00
6599;BME280;3335;43.198;27.918;2022-08-01T14:24:29;154791.44;;;30.23;100.00
6599;BME280;3335;43.198;27.918;2022-08-01T14:26:57;154682.59;;;29.80;100.00
6599;BME280;3335;43.198;27.918;2022-08-01T14:29:24;154632.03;;;29.60;100.00
6599;BME280;3335;43.198;27.918;2022-08-01T14:31:51;154728.22;;;29.98;100.00
6599;BME280;3335;43.198;27.918;2022-08-01T14:34:18;154793.97;;;30.24;100.00
6599;BME280;3335;43.198;27.918;2022-08-01T14:36:45;154763.63;;;30.12;100.00
6599;BME280;3335;43.198;27.918;2022-08-01T14:39:12;154702.84;;;29.88;100.00
6599;BME280;3335;43.198;27.918;2022-08-01T14:41:39;154630.75;;;29.59;100.00
6599;BME280;3335;43.198;27.918;2022-08-01T14:44:07;154580.16;;;29.39;100.00
6599;BME280;3335;43.198;27.918;2022-08-01T14:46:34;154515.59;;;29.13;100.00
6599;BME280;3335;43.198;27.918;2022-08-01T14:49:01;154452.41;;;28.88;100.00
6599;BME280;3335;43.198;27.918;2022-08-01T14:51:28;154451.16;;;28.87;100.00
6599;BME280;3335;43.198;27.918;2022-08-01T14:53:58;154373.94;;;28.56;100.00
6599;BME280;3335;43.198;27.918;2022-08-01T14:56:25;154538.41;;;29.22;100.00
6599;BME280;3335;43.198;27.918;2022-08-01T14:58:52;154558.66;;;29.30;100.00
6599;BME280;3335;43.198;27.918;2022-08-01T15:01:20;154582.69;;;29.40;100.00
6599;BME280;3335;43.198;27.918;2022-08-01T15:03:47;154576.34;;;29.37;100.00
6599;BME280;3335;43.198;27.918;2022-08-01T15:06:16;154528.25;;;29.18;100.00
6599;BME280;3335;43.198;27.918;2022-08-01T15:08:43;154495.38;;;29.05;100.00
6599;BME280;3335;43.198;27.918;2022-08-01T15:11:10;154492.84;;;29.04;100.00
6599;BME280;3335;43.198;27.918;2022-08-01T15:13:37;154491.63;;;29.03;100.00
6599;BME280;3335;43.198;27.918;2022-08-01T15:16:04;154427.13;;;28.78;100.00
6599;BME280;3335;43.198;27.918;2022-08-01T15:18:32;154443.56;;;28.84;100.00
6599;BME280;3335;43.198;27.918;2022-08-01T15:20:59;154513.09;;;29.12;100.00
6599;BME280;3335;43.198;27.918;2022-08-01T15:23:26;154580.16;;;29.39;100.00
6599;BME280;3335;43.198;27.918;2022-08-01T15:25:53;154613.03;;;29.52;100.00
6599;BME280;3335;43.198;27.918;2022-08-01T15:28:20;154630.75;;;29.59;100.00
6599;BME280;3335;43.198;27.918;2022-08-01T15:30:47;154628.22;;;29.58;100.00
6599;BME280;3335;43.198;27.918;2022-08-01T15:33:14;154614.28;;;29.52;100.00
6599;BME280;3335;43.198;27.918;2022-08-01T15:35:43;154621.91;;;29.55;100.00
6599;BME280;3335;43.198;27.918;2022-08-01T15:38:10;154576.34;;;29.37;100.00
6599;BME280;3335;43.198;27.918;2022-08-01T15:40:37;154611.75;;;29.51;100.00
6599;BME280;3335;43.198;27.918;2022-08-01T15:43:04;154578.88;;;29.38;100.00
6599;BME280;3335;43.198;27.918;2022-08-01T15:45:31;154543.44;;;29.24;100.00
6599;BME280;3335;43.198;27.918;2022-08-01T15:47:58;154528.25;;;29.18;100.00
6599;BME280;3335;43.198;27.918;2022-08-01T15:50:25;154495.38;;;29.05;100.00
6599;BME280;3335;43.198;27.918;2022-08-01T15:52:53;154461.25;;;28.91;100.00
6599;BME280;3335;43.198;27.918;2022-08-01T15:55:20;154457.44;;;28.90;100.00
6599;BME280;3335;43.198;27.918;2022-08-01T15:57:47;154422.03;;;28.76;100.00
6599;BME280;3335;43.198;27.918;2022-08-01T16:00:14;154424.59;;;28.77;100.00
6599;BME280;3335;43.198;27.918;2022-08-01T16:02:41;154449.88;;;28.87;100.00
6599;BME280;3335;43.198;27.918;2022-08-01T16:05:08;154441.03;;;28.83;100.00
6599;BME280;3335;43.198;27.918;2022-08-01T16:07:35;154411.94;;;28.72;100.00
6599;BME280;3335;43.198;27.918;2022-08-01T16:10:05;154386.59;;;28.61;100.00
6599;BME280;3335;43.198;27.918;2022-08-01T16:12:32;154246.28;;;28.05;100.00
6599;BME280;3335;43.198;27.918;2022-08-01T16:14:59;154358.81;;;28.50;100.00
6599;BME280;3335;43.198;27.918;2022-08-01T16:17:26;154331.00;;;28.39;100.00
6599;BME280;3335;43.198;27.918;2022-08-01T16:19:53;154313.31;;;28.32;100.00
6599;BME280;3335;43.198;27.918;2022-08-01T16:22:20;154280.44;;;28.19;100.00
6599;BME280;3335;43.198;27.918;2022-08-01T16:24:46;154280.44;;;28.19;100.00
6599;BME280;3335;43.198;27.918;2022-08-01T16:27:15;154257.63;;;28.10;100.00
6599;BME280;3335;43.198;27.918;2022-08-01T16:29:42;154246.28;;;28.05;100.00
6599;BME280;3335;43.198;27.918;2022-08-01T16:32:09;154234.91;;;28.01;100.00
6599;BME280;3335;43.198;27.918;2022-08-01T16:34:36;154227.34;;;27.98;100.00
6599;BME280;3335;43.198;27.918;2022-08-01T16:37:03;154217.22;;;27.94;100.00
6599;BME280;3335;43.198;27.918;2022-08-01T16:39:30;154199.50;;;27.87;100.00
6599;BME280;3335;43.198;27.918;2022-08-01T16:41:57;154189.41;;;27.82;100.00
6599;BME280;3335;43.198;27.918;2022-08-01T16:44:25;154183.06;;;27.80;100.00
6599;BME280;3335;43.198;27.918;2022-08-01T16:46:52;154172.97;;;27.76;100.00
6599;BME280;3335;43.198;27.918;2022-08-01T16:49:19;154160.34;;;27.71;100.00
6599;BME280;3335;43.198;27.918;2022-08-01T16:51:46;154143.94;;;27.64;100.00
6599;BME280;3335;43.198;27.918;2022-08-01T16:54:13;154138.88;;;27.62;100.00
6599;BME280;3335;43.198;27.918;2022-08-01T16:56:40;154121.19;;;27.55;100.00
6599;BME280;3335;43.198;27.918;2022-08-01T16:59:06;154102.19;;;27.48;100.00
6599;BME280;3335;43.198;27.918;2022-08-01T17:01:35;154095.88;;;27.45;100.00
6599;BME280;3335;43.198;27.918;2022-08-01T17:04:02;154098.41;;;27.46;100.00
6599;BME280;3335;43.198;27.918;2022-08-01T17:06:29;154074.41;;;27.36;100.00
6599;BME280;3335;43.198;27.918;2022-08-01T17:08:56;154057.97;;;27.30;100.00
6599;BME280;3335;43.198;27.918;2022-08-01T17:11:23;154049.13;;;27.26;100.00
6599;BME280;3335;43.198;27.918;2022-08-01T17:13:50;154040.31;;;27.23;100.00
6599;BME280;3335;43.198;27.918;2022-08-01T17:16:17;154030.16;;;27.19;100.00
6599;BME280;3335;43.198;27.918;2022-08-01T17:18:45;154018.81;;;27.14;100.00
6599;BME280;3335;43.198;27.918;2022-08-01T17:21:12;154003.69;;;27.08;100.00
6599;BME280;3335;43.198;27.918;2022-08-01T17:23:39;153997.34;;;27.06;100.00
6599;BME280;3335;43.198;27.918;2022-08-01T17:26:06;153992.31;;;27.04;100.00
6599;BME280;3335;43.198;27.918;2022-08-01T17:28:33;153982.16;;;26.99;100.00
6599;BME280;3335;43.198;27.918;2022-08-01T17:31:00;153972.06;;;26.95;100.00
6599;BME280;3335;43.198;27.918;2022-08-01T17:33:27;153954.41;;;26.88;100.00
6599;BME280;3335;43.198;27.918;2022-08-01T17:35:55;153949.34;;;26.86;100.00
6599;BME280;3335;43.198;27.918;2022-08-01T17:38:22;153950.63;;;26.87;100.00
6599;BME280;3335;43.198;27.918;2022-08-01T17:40:49;153954.41;;;26.88;100.00
6599;BME280;3335;43.198;27.918;2022-08-01T17:43:15;153939.22;;;26.82;100.00
6599;BME280;3335;43.198;27.918;2022-08-01T17:45:42;153934.13;;;26.80;100.00
6599;BME280;3335;43.198;27.918;2022-08-01T17:48:10;153919.03;;;26.74;100.00
6599;BME280;3335;43.198;27.918;2022-08-01T17:50:41;153916.47;;;26.73;100.00
6599;BME280;3335;43.198;27.918;2022-08-01T17:53:10;153920.28;;;26.75;100.00
6599;BME280;3335;43.198;27.918;2022-08-01T17:55:37;153913.94;;;26.72;100.00
6599;BME280;3335;43.198;27.918;2022-08-01T17:58:06;153906.38;;;26.69;100.00
6599;BME280;3335;43.198;27.918;2022-08-01T18:00:33;153888.69;;;26.62;100.00
6599;BME280;3335;43.198;27.918;2022-08-01T18:03:02;153898.78;;;26.66;100.00
6599;BME280;3335;43.198;27.918;2022-08-01T18:05:30;153888.69;;;26.62;100.00
6599;BME280;3335;43.198;27.918;2022-08-01T18:07:57;153891.22;;;26.63;100.00
6599;BME280;3335;43.198;27.918;2022-08-01T18:10:26;153878.59;;;26.58;100.00
6599;BME280;3335;43.198;27.918;2022-08-01T18:12:53;153893.75;;;26.64;100.00
6599;BME280;3335;43.198;27.918;2022-08-01T18:15:20;153878.59;;;26.58;100.00
6599;BME280;3335;43.198;27.918;2022-08-01T18:17:47;153863.41;;;26.52;100.00
6599;BME280;3335;43.198;27.918;2022-08-01T18:20:14;153848.31;;;26.46;100.00
6599;BME280;3335;43.198;27.918;2022-08-01T18:22:41;153859.66;;;26.50;100.00
6599;BME280;3335;43.198;27.918;2022-08-01T18:25:08;153858.41;;;26.50;100.00
6599;BME280;3335;43.198;27.918;2022-08-01T18:27:36;153845.78;;;26.45;100.00
6599;BME280;3335;43.198;27.918;2022-08-01T18:30:05;153825.59;;;26.37;100.00
6599;BME280;3335;43.198;27.918;2022-08-01T18:32:32;153817.97;;;26.34;100.00
6599;BME280;3335;43.198;27.918;2022-08-01T18:34:59;153845.78;;;26.45;100.00
6599;BME280;3335;43.198;27.918;2022-08-01T18:37:26;153838.22;;;26.42;100.00
6599;BME280;3335;43.198;27.918;2022-08-01T18:39:52;153838.22;;;26.42;100.00
6599;BME280;3335;43.198;27.918;2022-08-01T18:42:19;153830.59;;;26.39;100.00
6599;BME280;3335;43.198;27.918;2022-08-01T18:44:48;153810.41;;;26.31;100.00
6599;BME280;3335;43.198;27.918;2022-08-01T18:47:14;153805.34;;;26.29;100.00
6599;BME280;3335;43.198;27.918;2022-08-01T18:49:41;153797.78;;;26.26;100.00
6599;BME280;3335;43.198;27.918;2022-08-01T18:52:08;153795.25;;;26.25;100.00
6599;BME280;3335;43.198;27.918;2022-08-01T18:54:35;153768.69;;;26.14;100.00
6599;BME280;3335;43.198;27.918;2022-08-01T18:57:02;153753.59;;;26.08;100.00
6599;BME280;3335;43.198;27.918;2022-08-01T18:59:29;153756.06;;;26.09;100.00
6599;BME280;3335;43.198;27.918;2022-08-01T19:01:57;153751.03;;;26.07;100.00
6599;BME280;3335;43.198;27.918;2022-08-01T19:04:24;153710.63;;;25.91;100.00
6599;BME280;3335;43.198;27.918;2022-08-01T19:06:52;153744.72;;;26.04;100.00
6599;BME280;3335;43.198;27.918;2022-08-01T19:09:19;153660.19;;;25.71;100.00
6599;BME280;3335;43.198;27.918;2022-08-01T19:11:47;153732.09;;;25.99;100.00
6599;BME280;3335;43.198;27.918;2022-08-01T19:14:14;153740.94;;;26.03;100.00
6599;BME280;3335;43.198;27.918;2022-08-01T19:16:41;153715.72;;;25.93;100.00
6599;BME280;3335;43.198;27.918;2022-08-01T19:19:09;153694.25;;;25.84;100.00
6599;BME280;3335;43.198;27.918;2022-08-01T19:21:37;153686.66;;;25.81;100.00
6599;BME280;3335;43.198;27.918;2022-08-01T19:24:06;153676.56;;;25.77;100.00
6599;BME280;3335;43.198;27.918;2022-08-01T19:26:47;153653.84;;;25.68;100.00
6599;BME280;3335;43.198;27.918;2022-08-01T19:29:17;153646.31;;;25.65;100.00
6599;BME280;3335;43.198;27.918;2022-08-01T19:31:46;153648.84;;;25.66;100.00
6599;BME280;3335;43.198;27.918;2022-08-01T19:34:16;153631.13;;;25.59;100.00
6599;BME280;3335;43.198;27.918;2022-08-01T19:36:45;153624.84;;;25.56;100.00
6599;BME280;3335;43.198;27.918;2022-08-01T19:39:13;153588.22;;;25.42;100.00
6599;BME280;3335;43.198;27.918;2022-08-01T19:41:43;153612.19;;;25.51;100.00
6599;BME280;3335;43.198;27.918;2022-08-01T19:44:11;153580.63;;;25.39;100.00
6599;BME280;3335;43.198;27.918;2022-08-01T19:46:38;153583.16;;;25.40;100.00
6599;BME280;3335;43.198;27.918;2022-08-01T19:49:06;153578.06;;;25.38;100.00
6599;BME280;3335;43.198;27.918;2022-08-01T19:51:39;153583.16;;;25.40;100.00
6599;BME280;3335;43.198;27.918;2022-08-01T19:54:09;153575.59;;;25.37;100.00
6599;BME280;3335;43.198;27.918;2022-08-01T19:56:38;153530.19;;;25.18;100.00
6599;BME280;3335;43.198;27.918;2022-08-01T19:59:13;153536.47;;;25.21;100.00
6599;BME280;3335;43.198;27.918;2022-08-01T20:01:41;153544.00;;;25.24;100.00
6599;BME280;3335;43.198;27.918;2022-08-01T20:04:08;153554.09;;;25.28;100.00
6599;BME280;3335;43.198;27.918;2022-08-01T20:06:37;153540.25;;;25.22;100.00
6599;BME280;3335;43.198;27.918;2022-08-01T20:09:05;153545.28;;;25.24;100.00
6599;BME280;3335;43.198;27.918;2022-08-01T20:11:33;153545.28;;;25.24;100.00
6599;BME280;3335;43.198;27.918;2022-08-01T20:14:00;153540.25;;;25.22;100.00
6599;BME280;3335;43.198;27.918;2022-08-01T20:16:28;153526.38;;;25.17;100.00
6599;BME280;3335;43.198;27.918;2022-08-01T20:18:57;153521.31;;;25.15;100.00
6599;BME280;3335;43.198;27.918;2022-08-01T20:21:25;153499.88;;;25.06;100.00
6599;BME280;3335;43.198;27.918;2022-08-01T20:23:54;153483.47;;;25.00;100.00
6599;BME280;3335;43.198;27.918;2022-08-01T20:26:26;153441.81;;;24.83;100.00
6599;BME280;3335;43.198;27.918;2022-08-01T20:28:54;153403.97;;;24.68;100.00
6599;BME280;3335;43.198;27.918;2022-08-01T20:31:21;153431.72;;;24.79;100.00
6599;BME280;3335;43.198;27.918;2022-08-01T20:33:52;153421.63;;;24.75;100.00
6599;BME280;3335;43.198;27.918;2022-08-01T20:36:19;153385.06;;;24.60;100.00
6599;BME280;3335;43.198;27.918;2022-08-01T20:38:48;153426.66;;;24.77;100.00